Nf67 Femarnbaelt II — OU3102 — position and weather

sailwx.info

Track history (hours):
 
Tides and Currents Weather Stations Pressure Air Temp Water Temp Dewpoint Dewpoint Depression Visibility Wind Speed Wind Dir Waves Ship Positions

Nf67 Femarnbaelt II

Last reported at 2017-Dec-17 23:00 UTC. Time now 2017-Dec-17 23:30 UTC.
Position N 57°36' E 009°57'.

Length 15 m.

Type: Fishing. MMSI: 219012459.

Date/timePositionNaut miles runAvg speedWind from/ knotsBaromVisibWave heightAir tempDewpointWater temp
2017-Dec-17 23:00N 57°36' E 009°57'0 0.0
2017-Dec-17 22:30N 57°36' E 009°57'0 0.0
2017-Dec-17 22:00N 57°36' E 009°57'0 0.0
2017-Dec-17 21:30N 57°36' E 009°57'11 0.7
2017-Dec-17 05:54N 57°46' E 009°47'3 7.2
2017-Dec-17 05:29N 57°43' E 009°50'4 7.3
2017-Dec-17 05:00N 57°40' E 009°54'4 7.4
2017-Dec-17 04:29N 57°37' E 009°57'1 2.1
2017-Dec-17 03:59N 57°36' E 009°57'  
2017-Dec-13 17:56N 57°36' E 009°57'0 0.0
2017-Dec-13 17:26N 57°36' E 009°57'0 0.0
2017-Dec-13 16:59N 57°36' E 009°57'0 0.0
2017-Dec-13 16:26N 57°36' E 009°57'  
2017-Dec-10 06:46N 57°36' E 009°57'0 0.0
2017-Dec-10 06:28N 57°36' E 009°57'0 0.0
2017-Dec-10 05:52N 57°36' E 009°57'0 0.0
2017-Dec-10 05:28N 57°36' E 009°57'  
Track history (hours):
 
Tides and Currents Weather Stations Pressure Air Temp Water Temp Dewpoint Dewpoint Depression Visibility Wind Speed Wind Dir Waves Ship Positions

Nf67 Femarnbaelt II

Last reported at 2017-Dec-17 23:00 UTC. Time now 2017-Dec-17 23:30 UTC.
Position N 57°36' E 009°57'.

Length 15 m.

Type: Fishing. MMSI: 219012459.

Date/timePositionNaut miles runAvg speedWind from/ knotsBaromVisibWave heightAir tempDewpointWater temp
2017-Dec-17 23:00N 57°36' E 009°57'0 0.0
2017-Dec-17 22:30N 57°36' E 009°57'0 0.0
2017-Dec-17 22:00N 57°36' E 009°57'0 0.0
2017-Dec-17 21:30N 57°36' E 009°57'11 0.7
2017-Dec-17 05:54N 57°46' E 009°47'3 7.2
2017-Dec-17 05:29N 57°43' E 009°50'4 7.3
2017-Dec-17 05:00N 57°40' E 009°54'4 7.4
2017-Dec-17 04:29N 57°37' E 009°57'1 2.1
2017-Dec-17 03:59N 57°36' E 009°57'  
2017-Dec-13 17:56N 57°36' E 009°57'0 0.0
2017-Dec-13 17:26N 57°36' E 009°57'0 0.0
2017-Dec-13 16:59N 57°36' E 009°57'0 0.0
2017-Dec-13 16:26N 57°36' E 009°57'  
2017-Dec-10 06:46N 57°36' E 009°57'0 0.0
2017-Dec-10 06:28N 57°36' E 009°57'0 0.0
2017-Dec-10 05:52N 57°36' E 009°57'0 0.0
2017-Dec-10 05:28N 57°36' E 009°57'  

Dump ship's entire track history